EPPOEPKT

Guest
Details From EPPO - LAWICA
To EPKT - PYRZOWICE
Flight Number -
Tags generated
Created
Modified
Stats Distance 144 nm / 267 km
Max Altitude 18,200 ft / 5,547 m
Waypoints 3
Social Downloads 3
Likes 0
Share VATSIM

Download

Looking for another format? Having issues loading an existing format? Contact us
Advertisement - Login to hide

Notes

Basic altitude profile: - Ascent Rate: 2500ft/min - Ascent Speed: 250kts - Cruise Altitude: 11000ft - Cruise Speed: 420kts - Descent Rate: 1500ft/min - Descent Speed: 250kts Options: - Use NATs: yes - Use PACOTS: yes - Use low airways: yes - Use high airways: yes

Route

EPPO BADNO EPKT

ID Type Via Altitude Latitude Longitude Leg Dist Tot Dist Heading (true) Name
O EPPO APT - 0 ft / 0 m 52.42157˚ 16.82355˚ - 0 nm - LAWICA
BADNO FIX - 18,200 ft / 5,547 m 51.75000˚ 17.67833˚ 51 nm 51 nm 142° / 142° -
O EPKT APT - 0 ft / 0 m 50.47426˚ 19.07436˚ 92 nm 144 nm 145° / 146° PYRZOWICE

Altitude Profile

Advertisement - Login to hide

EPPO

Details ICAO EPPO (POZ)
Name LAWICA
Region Poland
Timezone Europe/Warsaw (UTC+2.0)
Stats Elevation 308 ft / 94 m (AMSL)
Location 52.421566° 16.823549°
Runways 1
Magnetic Variation 4.804° E

METAR

EPPO 222230Z 23005KT CAVOK 11/08 Q1017

Decode

TAF

TAF EPPO 221730Z 2218/2318 27010KT 9999 SCT040 PROB40 TEMPO 2218/2222 -SHRA SCT040CB TEMPO 2308/2318 28015G25KT -SHRA SCT033CB

Decode

Departure Runways

ID Width Length Bearing (true) Bearing (mag) Surface Threshold Offset Overrun Length
11 164 ft / 50 m 8,153 ft / 2,485 m 107.57° 102.77° Asphalt 0 ft / 0 m 0 ft / 0 m
29 164 ft / 50 m 8,153 ft / 2,485 m 287.59° 282.79° Asphalt 0 ft / 0 m 0 ft / 0 m

EPKT

Details ICAO EPKT (KTW)
Name PYRZOWICE
Region Poland
Timezone Europe/Warsaw (UTC+2.0)
Stats Elevation 995 ft / 303 m (AMSL)
Location 50.474263° 19.074356°
Runways 1
Magnetic Variation 5.149° E

METAR

EPKT 222230Z 27007KT CAVOK 09/05 Q1018

Decode

TAF

TAF EPKT 221730Z 2218/2318 27008KT 9999 SCT040 TEMPO 2218/2318 27015G25KT SHRA BKN025CB

Decode

Destination Runways

ID Width Length Bearing (true) Bearing (mag) Surface Threshold Offset Overrun Length
09 195 ft / 59 m 9,156 ft / 2,791 m 90.18° 85.03° Concrete 0 ft / 0 m 0 ft / 0 m
27 195 ft / 59 m 9,156 ft / 2,791 m 270.22° 265.07° Concrete 0 ft / 0 m 0 ft / 0 m

Approach Navaids

Runway Type Ident Frequency Range Bearing (true) Bearing (mag) Slope Elevation
27 Localiser KAT 109.90 MHz 18 nm / 33 km 270.18° 265.03° - 995 ft / 303 m (AMSL)
27 Glidescope KAT 109.90 MHz 10 nm / 19 km 270.20° 265.05° 3.20° 995 ft / 303 m (AMSL)

Popular Alternatives